Share

Buxton, ND

1:52 AM CDT on April 25, 2014 (GMT -0500)
NDDOT Buxton I-29 MP 114 (MND012) Elev 930 ft | 47.54 °N, 97.08 °W | Change Station

Current weather conditions updated 50 minutes ago

Overcast
Overcast
41 °F
Feels Like 36 °F
N
7
Wind Variable Wind from NW
Gusts 12.0 mph
Sunrise 6:21 AM
Sunset 8:32 PM
Moon Waning Crescent

Today is forecast to be Much Warmer than yesterday.

Pressure 29.72 in
Visibility 1.2 miles
Clouds Mostly Cloudy 200 ft
Overcast 1300 ft
Windchill 36 °F
Dew Point 41 °F
Humidity 99%
Rainfall -999.00 in
Snow Depth Not available.
UV 0 out of 16
Pollen 6.80 out of 12
Air Quality Not available.
Flu Activity Sporadic
SPECI KGFK 250636Z AUTO 36004KT 1 1/4SM BR BKN002 OVC013 03/03 A2972 RMK AO2 TSNO

More Conditions Fewer Conditions

Pressure 29.72 in
Visibility 1.2 miles
Clouds Mostly Cloudy 200 ft
Overcast 1300 ft
Windchill 36 °F
Dew Point 41 °F
Humidity 99%
Rainfall -999.00 in
Snow Depth Not available.
UV 0 out of 16
Pollen 6.80 out of 12
Air Quality Not available.
Flu Activity Sporadic
SPECI KGFK 250636Z AUTO 36004KT 1 1/4SM BR BKN002 OVC013 03/03 A2972 RMK AO2 TSNO

More Conditions Fewer Conditions

10-Day Weather Forecast

Almanac

Astronomy

Apr. 25, 2014 Rise Set
Actual Time 6:21 AM CDT 8:32 PM CDT
Civil Twilight 5:47 AM CDT 9:05 PM CDT
Nautical Twilight 5:06 AM CDT 9:47 PM CDT
Astronomical Twilight 4:19 AM CDT 10:34 PM CDT
Moon 4:27 AM CDT 4:40 PM CDT
Length of Visible Light 15h 18m
Length of Day
14h 10m
Tomorrow will be 3m 8s longer.
Waning Crescent, 19% of the Moon is Illuminated
Today
Waning Crescent
Apr 29
New
May 6
First Quarter
May 14
Full
May 21
Last Quarter

Today's Extremes

State Highs State Lows

Community

  • Deer in evening light
    Deer in evening light
  • Critter
    Critter
  • Jone Runs Falls
    Jone Runs Falls
  • Easter in Shenandoah National Park
    Easter in Shenandoah National Park
  • Sunset at Apalachicola Bay, Florida
    Sunset at Apalachicola Bay, Florida

WunderPhotos

Upload Photos

1,704,870 photos uploaded!

WunderBlogs® & News

Nearby

Snow Depth

Station Depth Elevation
No new snow has been reported.

Coastal Water Temperatures

Place Temperature
No Stations Reporting

Earthquake Activity

City Distance Mag. Time & Date
No recent earthquake activity has been reported nearby.
Minimum magnitude displayed is 2.5.

Nearby Weather Stations

Station Location Temp. Windchill Dew Point Humidity Wind Precip. Elev Updated Type
NDDOT Buxton I-29 MP 114, Buxton, ND 41 °F 36 °F 41 °F 99% NW  at  7 mph 0.00 in / hr 930 ft 1:02 AM CDT MADIS

Show More Stations Show Fewer Stations

What do you think?

We're not finished. Please let us know what you like, what you don't like, and what you are still missing.